Terminal Aerodrome Forecast
Issued by NWS Twin Cities, MN

Home | Current Version | Previous Version | Text Only | Print | Product List | Glossary On
Versions: 1 2 3 4 5 6 7 8 9 10 11 12 13 14 15 16 17
000
FTUS43 KMPX 191700
TAFEAU
TAF
KEAU 191739Z 1918/2018 18018G23KT P6SM SCT025 BKN050
     FM200100 19012KT P6SM BKN025 OVC045
     FM200600 23008KT P6SM SCT050 BKN100
     FM201200 29009KT P6SM FEW250=

USA.gov is the U.S. government's official web portal to all federal, state and local government web resources and services.